Max, NE (69037)

12:16 PM MDT on July 26, 2016 (GMT -0600)
Kastens Grain | | Change Station

Elev 3077 ft 39.87 °N, 101.05 °W | Updated 10 minutes ago

Clear
Clear
88.3 °F
Feels Like 93 °F
N
8.0
Wind Variable Wind from SSE
Gusts 22.0 mph

Today
High -- | Low -- °F
--% Chance of Precip.
Yesterday
High -- | Low -- °F
Precip. -- in
Pressure 29.96 in
Visibility 10.0 miles
Clouds Clear
Heat Index 93 °F
Dew Point 69 °F
Humidity 53%
Rainfall 0.00 in
Snow Depth Not available.
5:38 AM 8:04 PM
Waning Gibbous, 52% visible
METAR KIML 261753Z AUTO 20014G21KT 10SM CLR 30/18 A3006 RMK AO2 SLP143 T03000178 10306 20189 56015
Pressure 29.96 in
Visibility 10.0 miles
Clouds Clear
Heat Index 93 °F
Dew Point 69 °F
Humidity 53%
Rainfall 0.00 in
Snow Depth Not available.
5:38 AM 8:04 PM
Waning Gibbous, 52% visible
METAR KIML 261753Z AUTO 20014G21KT 10SM CLR 30/18 A3006 RMK AO2 SLP143 T03000178 10306 20189 56015

10-Day Weather Forecast

Almanac

Astronomy

Jul. 26, 2016 Rise Set
Actual Time
Civil Twilight
Nautical Twilight
Astronomical Twilight
Moon
Length of Visible Light
Length of Day
Tomorrow will be .
, % of the Moon is Illuminated

Today's Extremes

State Highs State Lows

Community

WunderPhotos

Upload Photos

1,927,650 photos uploaded!

WunderBlog® & News

Nearby

Air Quality

  Air Quality AQ Index Pollutant
Not available.

Snow Depth

Station Depth Elevation

Earthquake Activity

City Distance Mag. Time & Date
Minimum magnitude displayed is 2.5.

Coastal Water Temperatures

Place Temperature

Stations

Nearby Weather Stations

Station Location Temp. Windchill Dew Point Humidity Wind Precip. Elev Updated Type
                   

Watches & Warnings

There are currently no watches in effect.